Time;durP1;ratioP1;P1;durP2;ratioP2;P2;SDS_P1;SDS_P2;PMS_P1;PMS_P2;Temp;Humidity;BMP_temperature;BMP_pressure;BME280_temperature;BME280_humidity;BME280_pressure;Samples;Min_cycle;Max_cycle;Signal;HPM_P1;HPM_P2
2022/03/28 00:01:35;;;;;;;9.30;4.20;;;;;;;;;;4990629;28;20049;-72
2022/03/28 00:04:01;;;;;;;15.18;4.10;;;;;;;;;;4987631;28;20035;-72
2022/03/28 00:06:27;;;;;;;9.05;3.80;;;;;;;;;;4988455;28;20437;-72
2022/03/28 00:08:54;;;;;;;9.43;4.13;;;;;;;;;;4991696;28;20045;-72
2022/03/28 00:11:20;;;;;;;12.30;4.00;;;;;;;;;;4992500;28;20398;-72
2022/03/28 00:13:46;;;;;;;8.15;4.10;;;;;;;;;;4989989;28;20401;-72
2022/03/28 00:16:12;;;;;;;15.38;4.65;;;;;;;;;;4989140;28;20402;-72
2022/03/28 00:18:38;;;;;;;16.85;4.68;;;;;;;;;;4987583;28;20038;-72
2022/03/28 00:21:05;;;;;;;10.75;4.65;;;;;;;;;;4989909;28;20034;-72
2022/03/28 00:23:32;;;;;;;14.57;5.10;;;;;;;;;;4990382;28;20398;-72
2022/03/28 00:25:58;;;;;;;14.40;4.88;;;;;;;;;;4989503;28;20490;-72
2022/03/28 00:28:25;;;;;;;14.35;4.55;;;;;;;;;;4993176;28;20057;-72
2022/03/28 00:30:51;;;;;;;18.70;5.22;;;;;;;;;;4990362;28;20398;-71
2022/03/28 00:33:17;;;;;;;7.55;5.18;;;;;;;;;;4989918;28;20124;-72
2022/03/28 00:35:43;;;;;;;15.60;5.57;;;;;;;;;;4986355;28;20046;-72
2022/03/28 00:38:11;;;;;;;10.27;6.10;;;;;;;;;;4991339;28;20038;-72
2022/03/28 00:40:37;;;;;;;18.48;7.75;;;;;;;;;;4990827;28;20042;-72
2022/03/28 00:43:05;;;;;;;9.85;7.43;;;;;;;;;;4990345;28;20092;-72
2022/03/28 00:45:32;;;;;;;26.85;8.88;;;;;;;;;;4988077;28;20494;-72
2022/03/28 00:47:58;;;;;;;27.65;6.13;;;;;;;;;;4988098;28;20042;-72
2022/03/28 00:50:24;;;;;;;27.73;6.30;;;;;;;;;;4990662;28;20108;-72
2022/03/28 00:52:51;;;;;;;13.57;6.32;;;;;;;;;;4989873;28;20045;-72
2022/03/28 00:55:17;;;;;;;14.75;6.50;;;;;;;;;;4990007;28;20066;-72
2022/03/28 00:57:43;;;;;;;10.88;6.20;;;;;;;;;;4990738;28;20124;-72
2022/03/28 01:00:10;;;;;;;39.22;6.22;;;;;;;;;;4971580;28;20490;-72
2022/03/28 01:02:36;;;;;;;22.40;5.80;;;;;;;;;;4990930;28;20570;-72
2022/03/28 01:05:02;;;;;;;23.00;6.32;;;;;;;;;;4989578;28;20046;-72
2022/03/28 01:07:29;;;;;;;23.33;6.82;;;;;;;;;;4995323;28;20050;-72
2022/03/28 01:09:56;;;;;;;34.03;7.20;;;;;;;;;;4988723;28;20086;-71
2022/03/28 01:12:23;;;;;;;18.20;6.60;;;;;;;;;;4989196;28;20054;-72
2022/03/28 01:14:50;;;;;;;21.15;6.50;;;;;;;;;;4987370;28;20042;-72
2022/03/28 01:20:00;;;;;;;22.98;6.93;;;;;;;;;;4987532;28;20092;-72
2022/03/28 01:22:26;;;;;;;18.98;7.35;;;;;;;;;;4987773;28;20128;-72
2022/03/28 01:24:52;;;;;;;22.55;7.07;;;;;;;;;;4984877;28;20042;-72
2022/03/28 01:27:20;;;;;;;23.10;8.15;;;;;;;;;;4990267;28;20096;-72
2022/03/28 01:29:46;;;;;;;18.20;7.95;;;;;;;;;;4990674;28;20115;-72
2022/03/28 01:32:12;;;;;;;20.33;8.32;;;;;;;;;;4987539;28;20047;-72
2022/03/28 01:34:38;;;;;;;19.70;7.68;;;;;;;;;;4993516;28;20088;-72
2022/03/28 01:37:04;;;;;;;13.00;8.05;;;;;;;;;;4993600;28;20125;-72
2022/03/28 01:39:32;;;;;;;12.45;8.25;;;;;;;;;;4994208;28;20038;-72
2022/03/28 01:41:58;;;;;;;28.38;8.82;;;;;;;;;;4993411;28;20038;-72
2022/03/28 01:44:25;;;;;;;23.33;8.95;;;;;;;;;;4992049;28;20050;-72
2022/03/28 01:46:51;;;;;;;13.55;8.80;;;;;;;;;;4993084;28;20125;-72
2022/03/28 01:49:18;;;;;;;15.57;9.38;;;;;;;;;;4992228;28;20034;-72
2022/03/28 01:51:45;;;;;;;27.80;9.23;;;;;;;;;;4992759;28;20121;-72
2022/03/28 01:54:11;;;;;;;21.55;9.45;;;;;;;;;;4992945;28;20109;-72
2022/03/28 01:56:37;;;;;;;15.27;8.95;;;;;;;;;;4992162;28;20449;-73
2022/03/28 01:59:04;;;;;;;16.52;9.55;;;;;;;;;;5001246;28;20035;-73
2022/03/28 02:01:31;;;;;;;17.13;9.85;;;;;;;;;;4993278;28;20038;-73
2022/03/28 02:03:57;;;;;;;13.98;9.07;;;;;;;;;;4994075;28;20052;-72
2022/03/28 02:06:23;;;;;;;21.13;9.18;;;;;;;;;;4991639;28;20050;-72
2022/03/28 02:08:50;;;;;;;23.60;9.57;;;;;;;;;;4992092;28;20042;-73
2022/03/28 02:11:16;;;;;;;33.17;9.88;;;;;;;;;;4993191;28;20046;-72
2022/03/28 02:13:42;;;;;;;21.48;9.88;;;;;;;;;;4989838;28;20043;-72
2022/03/28 02:16:09;;;;;;;19.08;9.90;;;;;;;;;;4994769;28;20030;-72
2022/03/28 02:18:35;;;;;;;21.83;10.35;;;;;;;;;;4993104;28;20520;-72
2022/03/28 02:21:01;;;;;;;29.00;10.10;;;;;;;;;;4992593;28;20093;-72
2022/03/28 02:23:28;;;;;;;21.27;11.18;;;;;;;;;;4994026;28;20057;-72
2022/03/28 02:25:54;;;;;;;19.55;9.93;;;;;;;;;;4992036;28;20092;-72
2022/03/28 02:28:20;;;;;;;17.58;10.80;;;;;;;;;;4990357;28;20133;-72
2022/03/28 02:30:46;;;;;;;28.40;10.35;;;;;;;;;;4975636;28;20042;-72
2022/03/28 02:33:12;;;;;;;40.50;10.30;;;;;;;;;;4992010;28;20050;-72
2022/03/28 02:35:40;;;;;;;21.92;10.70;;;;;;;;;;4993587;28;20042;-72
2022/03/28 02:38:06;;;;;;;21.75;11.25;;;;;;;;;;4992733;28;20122;-72
2022/03/28 02:40:33;;;;;;;37.88;11.77;;;;;;;;;;4993789;28;20165;-72
2022/03/28 02:42:59;;;;;;;20.55;12.10;;;;;;;;;;4997482;28;20038;-73
2022/03/28 02:45:26;;;;;;;25.95;12.20;;;;;;;;;;4980759;28;20050;-72
2022/03/28 02:47:52;;;;;;;20.63;12.25;;;;;;;;;;4979940;28;20447;-72
2022/03/28 02:50:18;;;;;;;29.20;12.10;;;;;;;;;;4998383;28;20062;-72
2022/03/28 02:52:45;;;;;;;35.63;12.00;;;;;;;;;;4997963;28;20106;-72
2022/03/28 02:55:11;;;;;;;23.80;12.23;;;;;;;;;;4978683;28;20411;-72
2022/03/28 02:57:37;;;;;;;37.92;11.90;;;;;;;;;;4994501;28;20445;-72
2022/03/28 03:00:07;;;;;;;22.88;12.13;;;;;;;;;;4999254;28;20045;-72
2022/03/28 03:02:38;;;;;;;26.80;12.23;;;;;;;;;;4997758;28;20800;-72
2022/03/28 03:05:05;;;;;;;21.20;12.68;;;;;;;;;;4996557;28;20969;-73
2022/03/28 03:07:31;;;;;;;19.25;12.02;;;;;;;;;;4991761;28;20037;-72
2022/03/28 03:09:57;;;;;;;33.33;12.57;;;;;;;;;;4995625;28;20494;-72
2022/03/28 03:12:23;;;;;;;33.05;11.88;;;;;;;;;;4990308;28;20046;-72
2022/03/28 03:14:51;;;;;;;19.50;12.25;;;;;;;;;;4978815;28;20038;-72
2022/03/28 03:17:17;;;;;;;19.42;11.45;;;;;;;;;;4995768;28;20041;-72
2022/03/28 03:19:44;;;;;;;23.10;12.30;;;;;;;;;;4994268;28;20041;-72
2022/03/28 03:22:11;;;;;;;65.90;13.63;;;;;;;;;;4994884;28;20057;-72
2022/03/28 03:24:37;;;;;;;55.38;14.18;;;;;;;;;;4996882;28;20037;-74
2022/03/28 03:27:04;;;;;;;97.45;15.45;;;;;;;;;;4979341;28;20065;-72
2022/03/28 03:29:30;;;;;;;22.95;13.60;;;;;;;;;;4994201;28;20049;-73
2022/03/28 03:31:56;;;;;;;46.47;13.80;;;;;;;;;;4995440;28;20093;-72
2022/03/28 03:34:22;;;;;;;49.97;13.70;;;;;;;;;;5003230;28;20093;-72
2022/03/28 03:36:48;;;;;;;55.85;14.65;;;;;;;;;;4988723;28;20394;-72
2022/03/28 03:39:14;;;;;;;44.58;14.45;;;;;;;;;;4994932;28;20045;-72
2022/03/28 03:41:40;;;;;;;43.15;14.50;;;;;;;;;;4994023;28;20034;-72
2022/03/28 03:44:07;;;;;;;22.17;14.05;;;;;;;;;;5001191;28;20076;-72
2022/03/28 03:46:33;;;;;;;37.33;15.43;;;;;;;;;;4993386;28;20224;-72
2022/03/28 03:48:59;;;;;;;40.60;14.18;;;;;;;;;;4994934;28;20049;-72
2022/03/28 03:51:25;;;;;;;37.08;15.50;;;;;;;;;;4989036;28;20042;-73
2022/03/28 03:53:52;;;;;;;42.40;15.45;;;;;;;;;;4995584;28;20046;-73
2022/03/28 03:56:18;;;;;;;45.67;15.30;;;;;;;;;;4989921;28;20101;-72
2022/03/28 03:58:44;;;;;;;38.60;15.57;;;;;;;;;;4993884;28;20050;-72
2022/03/28 04:01:10;;;;;;;28.27;15.80;;;;;;;;;;4989560;28;20034;-72
2022/03/28 04:03:37;;;;;;;24.48;14.90;;;;;;;;;;4992928;28;20042;-72
2022/03/28 04:06:03;;;;;;;22.25;15.02;;;;;;;;;;4978151;28;20077;-72
2022/03/28 04:08:29;;;;;;;35.25;16.80;;;;;;;;;;4992539;28;20039;-72
2022/03/28 04:10:55;;;;;;;24.75;16.48;;;;;;;;;;4993519;28;20042;-73
2022/03/28 04:13:22;;;;;;;35.05;16.52;;;;;;;;;;4991582;28;20046;-72
2022/03/28 04:15:48;;;;;;;53.20;16.67;;;;;;;;;;4994341;28;20042;-72
2022/03/28 04:18:15;;;;;;;37.08;16.42;;;;;;;;;;4983953;28;20548;-72
2022/03/28 04:20:41;;;;;;;28.85;16.42;;;;;;;;;;4993398;28;20027;-72
2022/03/28 04:23:07;;;;;;;44.55;17.80;;;;;;;;;;4992708;28;20129;-72
2022/03/28 04:25:33;;;;;;;39.00;17.77;;;;;;;;;;4993968;28;20070;-72
2022/03/28 04:27:59;;;;;;;33.92;17.80;;;;;;;;;;4986671;28;20045;-72
2022/03/28 04:30:26;;;;;;;25.20;17.17;;;;;;;;;;4991978;28;20393;-72
2022/03/28 04:32:52;;;;;;;47.30;19.50;;;;;;;;;;4991626;28;20072;-72
2022/03/28 04:35:22;;;;;;;32.88;17.80;;;;;;;;;;4991139;28;20054;-72
2022/03/28 04:37:48;;;;;;;26.92;17.50;;;;;;;;;;4990021;28;20038;-72
2022/03/28 04:40:15;;;;;;;28.73;17.27;;;;;;;;;;4991125;28;20148;-72
2022/03/28 04:42:41;;;;;;;31.58;16.70;;;;;;;;;;4988714;28;20050;-73
2022/03/28 04:45:08;;;;;;;27.13;17.75;;;;;;;;;;4989148;28;20085;-72
2022/03/28 04:47:34;;;;;;;31.63;17.55;;;;;;;;;;4986527;28;20046;-72
2022/03/28 04:50:00;;;;;;;26.85;17.38;;;;;;;;;;4986505;28;20414;-72
2022/03/28 04:52:27;;;;;;;23.30;17.00;;;;;;;;;;4989619;28;20140;-72
2022/03/28 04:54:53;;;;;;;21.77;16.98;;;;;;;;;;4987273;28;20502;-72
2022/03/28 04:57:19;;;;;;;29.30;16.00;;;;;;;;;;4985491;28;20051;-73
2022/03/28 04:59:45;;;;;;;23.95;16.13;;;;;;;;;;4990914;28;20065;-72
2022/03/28 05:02:11;;;;;;;22.42;15.27;;;;;;;;;;4990995;28;20038;-72
2022/03/28 05:04:37;;;;;;;22.67;16.33;;;;;;;;;;4991704;28;20533;-72
2022/03/28 05:07:03;;;;;;;24.70;15.65;;;;;;;;;;4982808;28;20089;-72
2022/03/28 05:09:29;;;;;;;41.20;15.70;;;;;;;;;;4985181;28;20041;-72
2022/03/28 05:11:57;;;;;;;28.55;15.60;;;;;;;;;;4989723;28;20070;-72
2022/03/28 05:14:23;;;;;;;32.85;15.32;;;;;;;;;;4988124;28;20042;-72
2022/03/28 05:16:49;;;;;;;39.60;15.40;;;;;;;;;;4988198;28;20045;-72
2022/03/28 05:19:16;;;;;;;22.70;15.23;;;;;;;;;;4987394;28;20050;-72
2022/03/28 05:21:42;;;;;;;32.47;15.90;;;;;;;;;;4987978;28;20058;-72
2022/03/28 05:24:08;;;;;;;28.77;16.20;;;;;;;;;;4981934;28;20043;-72
2022/03/28 05:26:34;;;;;;;23.65;16.05;;;;;;;;;;4983653;28;20046;-72
2022/03/28 05:29:01;;;;;;;30.42;17.15;;;;;;;;;;4982212;28;20085;-72
2022/03/28 05:31:27;;;;;;;46.28;17.27;;;;;;;;;;4985210;28;20045;-72
2022/03/28 05:33:53;;;;;;;27.23;17.40;;;;;;;;;;4986309;28;20070;-72
2022/03/28 05:36:19;;;;;;;27.33;18.58;;;;;;;;;;4987636;28;20050;-72
2022/03/28 05:38:46;;;;;;;24.83;17.90;;;;;;;;;;4988600;28;20112;-72
2022/03/28 05:41:12;;;;;;;24.65;16.30;;;;;;;;;;4986529;28;20034;-72
2022/03/28 05:43:38;;;;;;;21.45;17.73;;;;;;;;;;4986345;28;20034;-72
2022/03/28 05:46:05;;;;;;;25.85;17.52;;;;;;;;;;4987721;28;20034;-72
2022/03/28 05:48:31;;;;;;;29.90;18.50;;;;;;;;;;4982316;28;20406;-73
2022/03/28 05:50:57;;;;;;;31.27;18.45;;;;;;;;;;4983364;28;20128;-72
2022/03/28 05:53:23;;;;;;;25.25;18.70;;;;;;;;;;4987394;28;20042;-73
2022/03/28 05:55:50;;;;;;;27.23;19.52;;;;;;;;;;4985918;28;20065;-73
2022/03/28 05:58:16;;;;;;;29.83;18.70;;;;;;;;;;4986893;28;20034;-73
2022/03/28 06:00:42;;;;;;;77.53;20.17;;;;;;;;;;4969872;28;20043;-72
2022/03/28 06:03:08;;;;;;;25.67;18.70;;;;;;;;;;4988187;28;20442;-73
2022/03/28 06:05:37;;;;;;;26.45;19.50;;;;;;;;;;4987629;28;20053;-72
2022/03/28 06:08:04;;;;;;;36.92;19.92;;;;;;;;;;4989257;28;20049;-73
2022/03/28 06:10:30;;;;;;;28.08;19.88;;;;;;;;;;4988350;28;20124;-73
2022/03/28 06:12:56;;;;;;;37.35;20.98;;;;;;;;;;4990248;28;20530;-72
2022/03/28 06:15:24;;;;;;;32.22;20.25;;;;;;;;;;4986337;28;20042;-73
2022/03/28 06:17:50;;;;;;;30.15;19.60;;;;;;;;;;4987205;28;20034;-72
2022/03/28 06:20:17;;;;;;;24.98;18.92;;;;;;;;;;4990827;28;20089;-73
2022/03/28 06:22:43;;;;;;;29.48;19.63;;;;;;;;;;4990665;28;20051;-72
2022/03/28 06:25:09;;;;;;;24.08;19.10;;;;;;;;;;4989326;28;20379;-72
2022/03/28 06:27:40;;;;;;;28.58;17.98;;;;;;;;;;4980593;28;20134;-72
2022/03/28 06:30:07;;;;;;;28.02;18.70;;;;;;;;;;4979159;28;20047;-72
2022/03/28 06:32:33;;;;;;;24.45;18.00;;;;;;;;;;4985552;28;20070;-72
2022/03/28 06:34:59;;;;;;;22.10;17.67;;;;;;;;;;4988191;28;20034;-72
2022/03/28 06:37:25;;;;;;;20.35;17.40;;;;;;;;;;4988470;28;20038;-72
2022/03/28 06:39:51;;;;;;;23.23;17.20;;;;;;;;;;4983596;28;20053;-72
2022/03/28 06:42:17;;;;;;;24.25;16.70;;;;;;;;;;4991111;28;20088;-72
2022/03/28 06:44:44;;;;;;;18.15;16.15;;;;;;;;;;4986900;28;20092;-72
2022/03/28 06:47:10;;;;;;;19.85;16.65;;;;;;;;;;4991103;28;20041;-72
2022/03/28 06:49:37;;;;;;;24.10;17.05;;;;;;;;;;4989201;28;20445;-71
2022/03/28 06:52:03;;;;;;;27.70;17.90;;;;;;;;;;4991399;28;20058;-72
2022/03/28 06:54:29;;;;;;;23.73;16.73;;;;;;;;;;4984754;28;20038;-72
2022/03/28 06:56:55;;;;;;;23.35;16.63;;;;;;;;;;4982650;28;20053;-71
2022/03/28 06:59:23;;;;;;;21.33;16.90;;;;;;;;;;4980705;28;20054;-72
2022/03/28 07:01:50;;;;;;;23.45;16.50;;;;;;;;;;4984316;28;20433;-72
2022/03/28 07:04:16;;;;;;;22.35;15.88;;;;;;;;;;4984107;28;20030;-73
2022/03/28 07:06:42;;;;;;;22.08;16.05;;;;;;;;;;4984683;28;20133;-73
2022/03/28 07:09:08;;;;;;;22.42;17.35;;;;;;;;;;4985983;28;20057;-72
2022/03/28 07:11:34;;;;;;;24.60;17.08;;;;;;;;;;4987691;28;20030;-72
2022/03/28 07:14:00;;;;;;;21.73;15.75;;;;;;;;;;4984194;28;20134;-72
2022/03/28 07:16:26;;;;;;;18.77;14.15;;;;;;;;;;4983497;28;20046;-72
2022/03/28 07:18:53;;;;;;;17.60;13.80;;;;;;;;;;4985372;28;20050;-72
2022/03/28 07:21:19;;;;;;;14.85;11.80;;;;;;;;;;4985596;28;20046;-73
2022/03/28 07:23:45;;;;;;;15.23;11.45;;;;;;;;;;4982197;28;20034;-72
2022/03/28 07:26:11;;;;;;;13.98;11.98;;;;;;;;;;4984179;28;20525;-72
2022/03/28 07:28:39;;;;;;;15.93;11.88;;;;;;;;;;4984953;28;20092;-72
2022/03/28 07:31:09;;;;;;;22.40;13.75;;;;;;;;;;4986248;28;20045;-72
2022/03/28 07:33:39;;;;;;;19.85;13.82;;;;;;;;;;4984703;28;20043;-72
2022/03/28 07:36:05;;;;;;;21.70;13.48;;;;;;;;;;5000431;28;20038;-72
2022/03/28 07:38:31;;;;;;;19.52;14.63;;;;;;;;;;4986757;28;20042;-72
2022/03/28 07:40:57;;;;;;;18.65;13.88;;;;;;;;;;4985124;28;20038;-72
2022/03/28 07:43:23;;;;;;;16.95;13.32;;;;;;;;;;4987580;28;20046;-72
2022/03/28 07:45:52;;;;;;;20.55;14.30;;;;;;;;;;4985129;28;20131;-72
2022/03/28 07:48:19;;;;;;;18.42;14.05;;;;;;;;;;4985687;28;20038;-72
2022/03/28 07:50:45;;;;;;;18.30;12.82;;;;;;;;;;4971859;28;20092;-73
2022/03/28 07:53:12;;;;;;;18.27;13.18;;;;;;;;;;4987494;28;20043;-73
2022/03/28 07:55:39;;;;;;;17.70;13.43;;;;;;;;;;4990516;28;20045;-72
2022/03/28 07:58:06;;;;;;;20.02;13.95;;;;;;;;;;4989829;28;20462;-73
2022/03/28 08:00:32;;;;;;;19.60;14.10;;;;;;;;;;4986566;28;20030;-72
2022/03/28 08:02:58;;;;;;;20.90;13.63;;;;;;;;;;4986208;28;20034;-72
2022/03/28 08:05:24;;;;;;;17.60;13.52;;;;;;;;;;4986438;28;20044;-72
2022/03/28 08:07:51;;;;;;;21.73;13.82;;;;;;;;;;4988681;28;20107;-75
2022/03/28 08:10:18;;;;;;;52.38;17.33;;;;;;;;;;4986822;28;20046;-75
2022/03/28 08:12:44;;;;;;;132.35;19.80;;;;;;;;;;4989021;28;20070;-73
2022/03/28 08:15:11;;;;;;;18.17;13.30;;;;;;;;;;4969594;28;20034;-72
2022/03/28 08:17:37;;;;;;;18.20;13.15;;;;;;;;;;4984189;28;20038;-72
2022/03/28 08:20:04;;;;;;;19.15;13.55;;;;;;;;;;4971217;28;20702;-74
2022/03/28 08:22:30;;;;;;;20.05;14.13;;;;;;;;;;4987304;28;20038;-73
2022/03/28 08:24:56;;;;;;;19.20;13.52;;;;;;;;;;4974679;28;20042;-72
2022/03/28 08:27:22;;;;;;;20.75;13.38;;;;;;;;;;4988863;28;20053;-73
2022/03/28 08:29:48;;;;;;;21.02;14.05;;;;;;;;;;4986506;28;20137;-72
2022/03/28 08:32:14;;;;;;;21.35;14.20;;;;;;;;;;4987473;28;20121;-72
2022/03/28 08:34:41;;;;;;;23.35;13.88;;;;;;;;;;4973027;28;20073;-72
2022/03/28 08:37:09;;;;;;;23.75;14.60;;;;;;;;;;4984241;28;20042;-72
2022/03/28 08:39:36;;;;;;;22.05;13.93;;;;;;;;;;4990668;28;20041;-72
2022/03/28 08:42:02;;;;;;;21.65;13.55;;;;;;;;;;4988581;28;20125;-72
2022/03/28 08:44:28;;;;;;;17.85;12.02;;;;;;;;;;4993848;28;20046;-72
2022/03/28 08:46:55;;;;;;;17.95;11.98;;;;;;;;;;4993086;28;20032;-72
2022/03/28 08:49:22;;;;;;;19.30;11.98;;;;;;;;;;4993167;28;20380;-72
2022/03/28 08:51:49;;;;;;;17.85;12.40;;;;;;;;;;4988308;28;20038;-72
2022/03/28 08:54:15;;;;;;;18.30;11.82;;;;;;;;;;4993061;28;20042;-73
2022/03/28 08:56:41;;;;;;;18.58;11.98;;;;;;;;;;4994344;28;20050;-73
2022/03/28 08:59:08;;;;;;;19.67;12.75;;;;;;;;;;4993589;28;20066;-72
2022/03/28 09:01:34;;;;;;;20.60;12.93;;;;;;;;;;4992944;28;20041;-71
2022/03/28 09:04:06;;;;;;;21.52;13.43;;;;;;;;;;4993445;28;20044;-71
2022/03/28 09:06:37;;;;;;;19.67;12.98;;;;;;;;;;4966662;28;20053;-72
2022/03/28 09:09:12;;;;;;;18.77;12.00;;;;;;;;;;4991481;28;20038;-72
2022/03/28 09:11:38;;;;;;;19.00;10.98;;;;;;;;;;4985110;28;20069;-72
2022/03/28 09:14:04;;;;;;;15.23;10.55;;;;;;;;;;4992620;28;20046;-72
2022/03/28 09:16:31;;;;;;;16.02;10.52;;;;;;;;;;4993841;28;20045;-72
2022/03/28 09:18:58;;;;;;;15.88;10.60;;;;;;;;;;4975856;28;20088;-72
2022/03/28 09:21:25;;;;;;;15.43;9.65;;;;;;;;;;4976666;28;20073;-72
2022/03/28 09:23:52;;;;;;;11.55;8.50;;;;;;;;;;4992563;28;20042;-73
2022/03/28 09:26:22;;;;;;;12.38;8.63;;;;;;;;;;4959805;28;20046;-72
2022/03/28 09:28:48;;;;;;;10.98;8.07;;;;;;;;;;4994218;28;20038;-72
2022/03/28 09:31:24;;;;;;;11.38;8.13;;;;;;;;;;4973619;28;20120;-72
2022/03/28 09:34:01;;;;;;;10.98;7.53;;;;;;;;;;4992538;28;20046;-73
2022/03/28 09:36:36;;;;;;;9.13;7.63;;;;;;;;;;4991836;28;20406;-72
2022/03/28 09:39:04;;;;;;;8.70;6.80;;;;;;;;;;4988099;28;20077;-72
2022/03/28 09:41:30;;;;;;;8.45;6.22;;;;;;;;;;5004499;28;20042;-72
2022/03/28 09:43:57;;;;;;;8.15;6.20;;;;;;;;;;4971219;28;20050;-72
2022/03/28 09:46:30;;;;;;;9.18;6.45;;;;;;;;;;4985752;28;20055;-72
2022/03/28 09:49:00;;;;;;;10.15;7.13;;;;;;;;;;4987121;28;20049;-72
2022/03/28 09:51:30;;;;;;;10.07;6.68;;;;;;;;;;4985891;28;20046;-73
2022/03/28 09:53:57;;;;;;;7.57;6.20;;;;;;;;;;4992348;28;20038;-72
2022/03/28 09:56:24;;;;;;;7.22;6.03;;;;;;;;;;4992654;28;20528;-72
2022/03/28 09:58:59;;;;;;;8.05;6.47;;;;;;;;;;4975016;28;20049;-72
2022/03/28 10:01:35;;;;;;;10.65;6.88;;;;;;;;;;4990353;28;20509;-71
2022/03/28 10:04:07;;;;;;;6.70;5.97;;;;;;;;;;4988339;28;20060;-72
2022/03/28 10:06:34;;;;;;;7.60;6.80;;;;;;;;;;4990001;28;20045;-71
2022/03/28 10:09:00;;;;;;;8.27;6.90;;;;;;;;;;4988828;28;20132;-74
2022/03/28 10:11:27;;;;;;;8.15;7.05;;;;;;;;;;4991074;28;20046;-73
2022/03/28 10:13:53;;;;;;;9.85;7.25;;;;;;;;;;4990501;28;20870;-72
2022/03/28 10:16:19;;;;;;;9.65;7.30;;;;;;;;;;4992730;28;20035;-74
2022/03/28 10:18:46;;;;;;;9.13;7.13;;;;;;;;;;4986813;28;20155;-71
2022/03/28 10:21:21;;;;;;;8.48;7.28;;;;;;;;;;4985504;28;20580;-72
2022/03/28 10:23:53;;;;;;;9.73;7.50;;;;;;;;;;4986120;28;20071;-72
2022/03/28 10:26:24;;;;;;;9.55;7.00;;;;;;;;;;4988249;28;20042;-72
2022/03/28 10:29:07;;;;;;;10.10;8.40;;;;;;;;;;4991310;28;20053;-75
2022/03/28 10:31:34;;;;;;;9.90;7.85;;;;;;;;;;4991997;28;20046;-72
2022/03/28 10:34:01;;;;;;;9.25;7.60;;;;;;;;;;4987910;28;20066;-72
2022/03/28 10:36:29;;;;;;;10.68;7.63;;;;;;;;;;4990228;28;20046;-72
2022/03/28 10:39:15;;;;;;;8.75;7.80;;;;;;;;;;4987093;28;20089;-73
2022/03/28 10:41:42;;;;;;;9.82;8.40;;;;;;;;;;4991265;28;20034;-73
2022/03/28 10:44:08;;;;;;;9.95;8.13;;;;;;;;;;4972234;28;20066;-72
2022/03/28 10:46:35;;;;;;;9.60;8.02;;;;;;;;;;4989473;28;20042;-72
2022/03/28 10:49:02;;;;;;;9.60;8.30;;;;;;;;;;4989055;28;20035;-70
2022/03/28 10:51:29;;;;;;;9.40;8.10;;;;;;;;;;4986745;28;20038;-73
2022/03/28 10:54:00;;;;;;;9.13;8.23;;;;;;;;;;4988257;28;20043;-72
2022/03/28 10:56:33;;;;;;;9.38;7.93;;;;;;;;;;4988133;28;20041;-72
2022/03/28 10:59:01;;;;;;;9.65;8.20;;;;;;;;;;4969695;28;20039;-72
2022/03/28 11:01:28;;;;;;;8.80;7.82;;;;;;;;;;4988337;28;20370;-72
2022/03/28 11:04:02;;;;;;;9.85;7.82;;;;;;;;;;4984779;28;20042;-72
2022/03/28 11:06:46;;;;;;;9.63;8.60;;;;;;;;;;4986282;28;20073;-72
2022/03/28 11:09:12;;;;;;;12.07;8.02;;;;;;;;;;4989787;28;20050;-74
2022/03/28 11:11:55;;;;;;;11.30;8.05;;;;;;;;;;4989920;28;20039;-72
2022/03/28 11:14:37;;;;;;;10.20;8.65;;;;;;;;;;4988242;28;20089;-71
2022/03/28 11:17:13;;;;;;;9.40;8.07;;;;;;;;;;4988308;28;20032;-71
2022/03/28 11:19:51;;;;;;;9.65;8.63;;;;;;;;;;4986127;28;20049;-71
2022/03/28 11:22:17;;;;;;;9.73;8.25;;;;;;;;;;4974120;28;20046;-73
2022/03/28 11:24:58;;;;;;;10.25;8.95;;;;;;;;;;4972075;28;21682;-73
2022/03/28 11:27:25;;;;;;;9.27;8.15;;;;;;;;;;4974730;28;20050;-72
2022/03/28 11:30:00;;;;;;;11.27;8.02;;;;;;;;;;4987336;28;20054;-72
2022/03/28 11:32:29;;;;;;;10.88;8.07;;;;;;;;;;4996556;28;20125;-72
2022/03/28 11:34:55;;;;;;;9.25;8.25;;;;;;;;;;4984562;28;20125;-70
2022/03/28 11:37:22;;;;;;;9.50;8.18;;;;;;;;;;4985352;28;20053;-72
2022/03/28 11:39:56;;;;;;;8.93;7.97;;;;;;;;;;4987810;28;20042;-72
2022/03/28 11:42:23;;;;;;;12.43;8.63;;;;;;;;;;4986707;28;20042;-72
2022/03/28 11:44:50;;;;;;;9.50;8.55;;;;;;;;;;4985869;28;20038;-73
2022/03/28 11:47:17;;;;;;;9.10;8.18;;;;;;;;;;4985504;28;20046;-73
2022/03/28 11:49:56;;;;;;;9.70;8.70;;;;;;;;;;4987779;28;20130;-72
2022/03/28 11:52:23;;;;;;;10.52;8.52;;;;;;;;;;4983605;28;20047;-73
2022/03/28 11:54:50;;;;;;;10.60;9.02;;;;;;;;;;4985093;28;20037;-73
2022/03/28 12:00:28;;;;;;;9.55;8.55;;;;;;;;;;4986261;28;20129;-73
2022/03/28 12:02:55;;;;;;;10.77;8.70;;;;;;;;;;4987275;28;20073;-72
2022/03/28 12:05:25;;;;;;;11.20;8.55;;;;;;;;;;4988404;28;20038;-72
2022/03/28 12:07:52;;;;;;;9.57;8.30;;;;;;;;;;4983859;28;20136;-74
2022/03/28 12:10:18;;;;;;;10.35;8.52;;;;;;;;;;4984039;28;20058;-72
2022/03/28 12:12:44;;;;;;;9.32;8.43;;;;;;;;;;4986908;28;20042;-72
2022/03/28 12:15:11;;;;;;;9.43;8.50;;;;;;;;;;4987163;28;20202;-73
2022/03/28 12:17:37;;;;;;;9.77;8.77;;;;;;;;;;4968546;28;20042;-72
2022/03/28 12:20:05;;;;;;;9.40;8.07;;;;;;;;;;4986777;28;20084;-72
2022/03/28 12:22:43;;;;;;;9.40;8.45;;;;;;;;;;4985655;28;20092;-73
2022/03/28 12:25:09;;;;;;;9.65;8.75;;;;;;;;;;4986025;28;20034;-73
2022/03/28 12:27:35;;;;;;;9.43;8.52;;;;;;;;;;4984503;28;20042;-73
2022/03/28 12:30:01;;;;;;;9.95;8.90;;;;;;;;;;4984748;28;20176;-74
2022/03/28 12:32:27;;;;;;;10.45;9.35;;;;;;;;;;4985432;28;20046;-74
2022/03/28 12:34:53;;;;;;;10.25;9.20;;;;;;;;;;4984786;28;20053;-74
2022/03/28 12:37:19;;;;;;;10.18;9.18;;;;;;;;;;4986120;28;20042;-73
2022/03/28 12:39:45;;;;;;;10.23;9.20;;;;;;;;;;4983704;28;20096;-75
2022/03/28 12:42:24;;;;;;;11.18;9.38;;;;;;;;;;4982845;28;20057;-71
2022/03/28 12:44:53;;;;;;;13.85;9.68;;;;;;;;;;4966598;28;20049;-71
2022/03/28 12:47:19;;;;;;;12.93;10.18;;;;;;;;;;4984523;28;20030;-72
2022/03/28 12:49:45;;;;;;;11.68;9.77;;;;;;;;;;4987142;28;20077;-72
2022/03/28 12:52:14;;;;;;;10.90;9.77;;;;;;;;;;4989967;28;20034;-72
2022/03/28 12:54:42;;;;;;;11.38;10.15;;;;;;;;;;4990073;28;20053;-72
2022/03/28 12:57:09;;;;;;;11.18;10.13;;;;;;;;;;4987445;28;20042;-72
2022/03/28 12:59:36;;;;;;;11.70;10.50;;;;;;;;;;4989118;28;20031;-73
2022/03/28 13:02:13;;;;;;;11.68;10.57;;;;;;;;;;4987142;28;20077;-72
2022/03/28 13:04:43;;;;;;;11.63;10.50;;;;;;;;;;4986680;28;20034;-72
2022/03/28 13:07:17;;;;;;;12.30;11.07;;;;;;;;;;4982325;28;20057;-72
2022/03/28 13:09:52;;;;;;;14.85;12.05;;;;;;;;;;4988254;28;20057;-72
2022/03/28 13:12:19;;;;;;;13.63;11.27;;;;;;;;;;4988167;28;20446;-72
2022/03/28 13:14:48;;;;;;;13.05;11.43;;;;;;;;;;4985376;28;20054;-71
2022/03/28 13:17:19;;;;;;;15.30;11.43;;;;;;;;;;4984277;28;20589;-71
2022/03/28 13:19:56;;;;;;;15.18;11.43;;;;;;;;;;4987898;28;20513;-72
2022/03/28 13:22:29;;;;;;;12.32;11.10;;;;;;;;;;4985009;28;20050;-72
2022/03/28 13:25:19;;;;;;;14.90;12.15;;;;;;;;;;4985566;28;20043;-72
2022/03/28 13:28:01;;;;;;;13.60;11.55;;;;;;;;;;4982060;28;20034;-72
2022/03/28 13:30:28;;;;;;;13.95;11.20;;;;;;;;;;4980928;28;20072;-71
2022/03/28 13:32:56;;;;;;;12.52;11.32;;;;;;;;;;4983872;28;20034;-72
2022/03/28 13:35:25;;;;;;;11.70;10.43;;;;;;;;;;4985239;28;20046;-72
2022/03/28 13:37:58;;;;;;;12.00;10.73;;;;;;;;;;4987514;28;20046;-72
2022/03/28 13:40:25;;;;;;;14.48;11.38;;;;;;;;;;4986672;28;20073;-72
2022/03/28 13:42:51;;;;;;;12.40;11.20;;;;;;;;;;4979630;28;20047;-73
2022/03/28 13:45:18;;;;;;;13.18;11.80;;;;;;;;;;4982934;28;20042;-74
2022/03/28 13:47:45;;;;;;;12.38;11.07;;;;;;;;;;4985025;28;20065;-73
2022/03/28 13:50:11;;;;;;;12.65;11.18;;;;;;;;;;4981612;28;20089;-72
2022/03/28 13:52:37;;;;;;;13.82;11.77;;;;;;;;;;4981987;28;20125;-71
2022/03/28 13:55:03;;;;;;;12.68;11.38;;;;;;;;;;4978755;28;20161;-72
2022/03/28 13:57:29;;;;;;;13.32;11.93;;;;;;;;;;4983443;28;20042;-72
2022/03/28 13:59:56;;;;;;;13.35;11.95;;;;;;;;;;4983796;28;20096;-72
2022/03/28 14:02:22;;;;;;;12.82;11.38;;;;;;;;;;4983961;28;20081;-72
2022/03/28 14:04:48;;;;;;;14.98;12.00;;;;;;;;;;4985099;28;21669;-73
2022/03/28 14:07:15;;;;;;;14.95;11.15;;;;;;;;;;4985307;28;20093;-73
2022/03/28 14:09:41;;;;;;;12.27;10.68;;;;;;;;;;4981082;28;20046;-73
2022/03/28 14:12:07;;;;;;;12.20;10.10;;;;;;;;;;4980464;28;20039;-73
2022/03/28 14:14:35;;;;;;;11.75;10.43;;;;;;;;;;4984869;28;20046;-73
2022/03/28 14:17:01;;;;;;;10.82;9.77;;;;;;;;;;4985401;28;20053;-72
2022/03/28 14:19:27;;;;;;;12.07;9.30;;;;;;;;;;4986299;28;20486;-70
2022/03/28 14:21:55;;;;;;;10.70;9.52;;;;;;;;;;4982649;28;20133;-72
2022/03/28 14:24:21;;;;;;;12.70;9.52;;;;;;;;;;4990505;28;20057;-73
2022/03/28 14:26:47;;;;;;;10.55;9.32;;;;;;;;;;4991346;28;20391;-73
2022/03/28 14:29:13;;;;;;;18.40;9.30;;;;;;;;;;4984349;28;20049;-73
2022/03/28 14:31:40;;;;;;;11.85;9.73;;;;;;;;;;4984076;28;20034;-72